sensor_id;sensor_type;location;lat;lon;timestamp;P1;durP1;ratioP1;P2;durP2;ratioP2
15831;SDS011;8016;49.928;9.372;2023-04-29T00:01:37;9.40;;;6.33;;
15831;SDS011;8016;49.928;9.372;2023-04-29T00:04:03;8.57;;;7.60;;
15831;SDS011;8016;49.928;9.372;2023-04-29T00:06:29;9.10;;;5.60;;
15831;SDS011;8016;49.928;9.372;2023-04-29T00:08:55;8.10;;;6.57;;
15831;SDS011;8016;49.928;9.372;2023-04-29T00:11:22;7.20;;;5.73;;
15831;SDS011;8016;49.928;9.372;2023-04-29T00:13:48;7.83;;;5.60;;
15831;SDS011;8016;49.928;9.372;2023-04-29T00:16:14;6.93;;;5.53;;
15831;SDS011;8016;49.928;9.372;2023-04-29T00:18:40;7.00;;;5.53;;
15831;SDS011;8016;49.928;9.372;2023-04-29T00:21:06;6.60;;;6.00;;
15831;SDS011;8016;49.928;9.372;2023-04-29T00:23:32;6.97;;;6.00;;
15831;SDS011;8016;49.928;9.372;2023-04-29T00:25:58;5.63;;;5.03;;
15831;SDS011;8016;49.928;9.372;2023-04-29T00:28:24;8.20;;;4.97;;
15831;SDS011;8016;49.928;9.372;2023-04-29T00:30:50;6.23;;;4.97;;
15831;SDS011;8016;49.928;9.372;2023-04-29T00:33:17;5.70;;;5.13;;
15831;SDS011;8016;49.928;9.372;2023-04-29T00:35:43;6.13;;;5.23;;
15831;SDS011;8016;49.928;9.372;2023-04-29T00:38:09;8.07;;;5.90;;
15831;SDS011;8016;49.928;9.372;2023-04-29T00:40:35;6.23;;;5.40;;
15831;SDS011;8016;49.928;9.372;2023-04-29T00:43:01;9.27;;;5.97;;
15831;SDS011;8016;49.928;9.372;2023-04-29T00:45:27;7.87;;;6.00;;
15831;SDS011;8016;49.928;9.372;2023-04-29T00:47:53;7.53;;;6.20;;
15831;SDS011;8016;49.928;9.372;2023-04-29T00:50:20;10.10;;;7.00;;
15831;SDS011;8016;49.928;9.372;2023-04-29T00:52:46;8.60;;;6.87;;
15831;SDS011;8016;49.928;9.372;2023-04-29T00:55:12;9.93;;;7.13;;
15831;SDS011;8016;49.928;9.372;2023-04-29T00:57:38;5.63;;;4.67;;
15831;SDS011;8016;49.928;9.372;2023-04-29T01:00:05;5.13;;;4.70;;
15831;SDS011;8016;49.928;9.372;2023-04-29T01:02:31;5.30;;;3.60;;
15831;SDS011;8016;49.928;9.372;2023-04-29T01:04:57;5.57;;;4.67;;
15831;SDS011;8016;49.928;9.372;2023-04-29T01:12:20;10.13;;;5.17;;
15831;SDS011;8016;49.928;9.372;2023-04-29T01:14:53;5.27;;;4.77;;
15831;SDS011;8016;49.928;9.372;2023-04-29T01:17:25;5.20;;;4.27;;
15831;SDS011;8016;49.928;9.372;2023-04-29T01:19:56;8.60;;;5.67;;
15831;SDS011;8016;49.928;9.372;2023-04-29T01:22:23;5.90;;;5.40;;
15831;SDS011;8016;49.928;9.372;2023-04-29T01:24:49;7.85;;;7.15;;
15831;SDS011;8016;49.928;9.372;2023-04-29T01:27:32;6.40;;;5.80;;
15831;SDS011;8016;49.928;9.372;2023-04-29T01:35:27;8.13;;;7.37;;
15831;SDS011;8016;49.928;9.372;2023-04-29T01:37:56;7.60;;;6.10;;
15831;SDS011;8016;49.928;9.372;2023-04-29T01:40:33;8.70;;;5.83;;
15831;SDS011;8016;49.928;9.372;2023-04-29T01:43:01;10.10;;;9.10;;
15831;SDS011;8016;49.928;9.372;2023-04-29T01:45:28;15.67;;;14.13;;
15831;SDS011;8016;49.928;9.372;2023-04-29T01:47:55;23.23;;;20.83;;
15831;SDS011;8016;49.928;9.372;2023-04-29T01:50:22;17.90;;;16.27;;
15831;SDS011;8016;49.928;9.372;2023-04-29T01:52:48;15.77;;;14.17;;
15831;SDS011;8016;49.928;9.372;2023-04-29T01:55:15;14.70;;;13.30;;
15831;SDS011;8016;49.928;9.372;2023-04-29T01:57:41;12.83;;;11.63;;
15831;SDS011;8016;49.928;9.372;2023-04-29T02:00:08;10.93;;;8.80;;
15831;SDS011;8016;49.928;9.372;2023-04-29T02:02:35;13.50;;;12.10;;
15831;SDS011;8016;49.928;9.372;2023-04-29T02:05:01;13.90;;;11.13;;
15831;SDS011;8016;49.928;9.372;2023-04-29T02:07:27;12.00;;;10.80;;
15831;SDS011;8016;49.928;9.372;2023-04-29T02:09:53;13.40;;;12.00;;
15831;SDS011;8016;49.928;9.372;2023-04-29T02:12:19;12.10;;;10.90;;
15831;SDS011;8016;49.928;9.372;2023-04-29T02:14:45;12.13;;;10.90;;
15831;SDS011;8016;49.928;9.372;2023-04-29T02:17:12;9.17;;;8.33;;
15831;SDS011;8016;49.928;9.372;2023-04-29T02:19:38;9.60;;;8.70;;
15831;SDS011;8016;49.928;9.372;2023-04-29T02:22:04;13.80;;;10.63;;
15831;SDS011;8016;49.928;9.372;2023-04-29T02:24:30;11.97;;;10.20;;
15831;SDS011;8016;49.928;9.372;2023-04-29T02:26:56;11.90;;;10.40;;
15831;SDS011;8016;49.928;9.372;2023-04-29T02:29:23;10.83;;;9.43;;
15831;SDS011;8016;49.928;9.372;2023-04-29T02:31:50;8.70;;;7.80;;
15831;SDS011;8016;49.928;9.372;2023-04-29T02:34:16;7.30;;;6.70;;
15831;SDS011;8016;49.928;9.372;2023-04-29T02:36:42;6.27;;;5.60;;
15831;SDS011;8016;49.928;9.372;2023-04-29T02:39:08;6.37;;;5.17;;
15831;SDS011;8016;49.928;9.372;2023-04-29T02:41:34;7.13;;;5.57;;
15831;SDS011;8016;49.928;9.372;2023-04-29T02:44:00;5.97;;;5.13;;
15831;SDS011;8016;49.928;9.372;2023-04-29T02:46:26;5.70;;;4.97;;
15831;SDS011;8016;49.928;9.372;2023-04-29T02:48:52;5.50;;;5.00;;
15831;SDS011;8016;49.928;9.372;2023-04-29T02:51:18;7.07;;;6.27;;
15831;SDS011;8016;49.928;9.372;2023-04-29T02:53:44;8.07;;;6.87;;
15831;SDS011;8016;49.928;9.372;2023-04-29T02:56:10;9.27;;;7.03;;
15831;SDS011;8016;49.928;9.372;2023-04-29T02:58:36;7.63;;;6.83;;
15831;SDS011;8016;49.928;9.372;2023-04-29T03:01:02;8.37;;;7.63;;
15831;SDS011;8016;49.928;9.372;2023-04-29T03:03:28;9.83;;;8.00;;
15831;SDS011;8016;49.928;9.372;2023-04-29T03:05:55;9.27;;;8.07;;
15831;SDS011;8016;49.928;9.372;2023-04-29T03:08:21;8.37;;;7.57;;
15831;SDS011;8016;49.928;9.372;2023-04-29T03:10:47;8.07;;;7.27;;
15831;SDS011;8016;49.928;9.372;2023-04-29T03:13:13;8.30;;;7.50;;
15831;SDS011;8016;49.928;9.372;2023-04-29T03:15:39;8.60;;;7.80;;
15831;SDS011;8016;49.928;9.372;2023-04-29T03:18:05;8.63;;;7.53;;
15831;SDS011;8016;49.928;9.372;2023-04-29T03:20:30;8.03;;;7.23;;
15831;SDS011;8016;49.928;9.372;2023-04-29T03:22:57;9.03;;;6.73;;
15831;SDS011;8016;49.928;9.372;2023-04-29T03:25:24;7.63;;;6.93;;
15831;SDS011;8016;49.928;9.372;2023-04-29T03:27:50;7.13;;;6.33;;
15831;SDS011;8016;49.928;9.372;2023-04-29T03:30:16;7.67;;;6.97;;
15831;SDS011;8016;49.928;9.372;2023-04-29T03:32:42;8.93;;;7.97;;
15831;SDS011;8016;49.928;9.372;2023-04-29T03:35:08;7.70;;;6.80;;
15831;SDS011;8016;49.928;9.372;2023-04-29T03:37:35;7.93;;;7.10;;
15831;SDS011;8016;49.928;9.372;2023-04-29T03:40:01;9.30;;;8.37;;
15831;SDS011;8016;49.928;9.372;2023-04-29T03:42:28;8.80;;;8.00;;
15831;SDS011;8016;49.928;9.372;2023-04-29T03:44:54;8.37;;;7.57;;
15831;SDS011;8016;49.928;9.372;2023-04-29T03:47:20;7.73;;;7.13;;
15831;SDS011;8016;49.928;9.372;2023-04-29T03:49:46;7.47;;;6.77;;
15831;SDS011;8016;49.928;9.372;2023-04-29T03:52:12;7.33;;;6.67;;
15831;SDS011;8016;49.928;9.372;2023-04-29T03:54:38;7.73;;;7.03;;
15831;SDS011;8016;49.928;9.372;2023-04-29T03:57:04;7.43;;;6.73;;
15831;SDS011;8016;49.928;9.372;2023-04-29T03:59:30;7.10;;;6.50;;
15831;SDS011;8016;49.928;9.372;2023-04-29T04:01:56;6.90;;;6.30;;
15831;SDS011;8016;49.928;9.372;2023-04-29T04:04:22;7.70;;;6.80;;
15831;SDS011;8016;49.928;9.372;2023-04-29T04:06:48;7.97;;;7.17;;
15831;SDS011;8016;49.928;9.372;2023-04-29T04:09:16;7.23;;;6.60;;
15831;SDS011;8016;49.928;9.372;2023-04-29T04:11:42;7.97;;;7.27;;
15831;SDS011;8016;49.928;9.372;2023-04-29T04:14:08;7.47;;;5.93;;
15831;SDS011;8016;49.928;9.372;2023-04-29T04:16:34;6.43;;;5.77;;
15831;SDS011;8016;49.928;9.372;2023-04-29T04:19:00;7.00;;;6.40;;
15831;SDS011;8016;49.928;9.372;2023-04-29T04:21:27;6.63;;;6.10;;
15831;SDS011;8016;49.928;9.372;2023-04-29T04:23:54;6.97;;;5.93;;
15831;SDS011;8016;49.928;9.372;2023-04-29T04:26:20;6.80;;;6.27;;
15831;SDS011;8016;49.928;9.372;2023-04-29T04:28:47;6.23;;;5.73;;
15831;SDS011;8016;49.928;9.372;2023-04-29T04:31:13;7.27;;;6.67;;
15831;SDS011;8016;49.928;9.372;2023-04-29T04:33:39;6.67;;;6.17;;
15831;SDS011;8016;49.928;9.372;2023-04-29T04:36:05;6.40;;;5.70;;
15831;SDS011;8016;49.928;9.372;2023-04-29T04:38:31;7.80;;;5.97;;
15831;SDS011;8016;49.928;9.372;2023-04-29T04:40:58;6.13;;;5.63;;
15831;SDS011;8016;49.928;9.372;2023-04-29T04:43:24;7.07;;;6.17;;
15831;SDS011;8016;49.928;9.372;2023-04-29T04:45:50;6.97;;;6.37;;
15831;SDS011;8016;49.928;9.372;2023-04-29T04:48:17;7.10;;;6.57;;
15831;SDS011;8016;49.928;9.372;2023-04-29T04:50:43;7.83;;;7.13;;
15831;SDS011;8016;49.928;9.372;2023-04-29T04:53:09;7.93;;;7.13;;
15831;SDS011;8016;49.928;9.372;2023-04-29T04:55:35;8.20;;;7.50;;
15831;SDS011;8016;49.928;9.372;2023-04-29T04:58:01;8.37;;;7.57;;
15831;SDS011;8016;49.928;9.372;2023-04-29T05:00:27;8.60;;;7.37;;
15831;SDS011;8016;49.928;9.372;2023-04-29T05:02:53;8.50;;;7.57;;
15831;SDS011;8016;49.928;9.372;2023-04-29T05:05:19;8.47;;;7.73;;
15831;SDS011;8016;49.928;9.372;2023-04-29T05:07:45;8.77;;;7.87;;
15831;SDS011;8016;49.928;9.372;2023-04-29T05:10:11;9.00;;;7.83;;
15831;SDS011;8016;49.928;9.372;2023-04-29T05:12:37;8.60;;;7.80;;
15831;SDS011;8016;49.928;9.372;2023-04-29T05:15:03;9.17;;;8.37;;
15831;SDS011;8016;49.928;9.372;2023-04-29T05:17:29;10.00;;;9.10;;
15831;SDS011;8016;49.928;9.372;2023-04-29T05:19:55;9.23;;;8.33;;
15831;SDS011;8016;49.928;9.372;2023-04-29T05:22:21;8.77;;;8.07;;
15831;SDS011;8016;49.928;9.372;2023-04-29T05:24:47;9.40;;;8.50;;
15831;SDS011;8016;49.928;9.372;2023-04-29T05:27:13;11.23;;;10.13;;
15831;SDS011;8016;49.928;9.372;2023-04-29T05:29:40;11.10;;;10.10;;
15831;SDS011;8016;49.928;9.372;2023-04-29T05:32:06;11.27;;;10.17;;
15831;SDS011;8016;49.928;9.372;2023-04-29T05:34:32;11.50;;;10.40;;
15831;SDS011;8016;49.928;9.372;2023-04-29T05:36:58;12.70;;;11.40;;
15831;SDS011;8016;49.928;9.372;2023-04-29T05:39:24;12.37;;;10.07;;
15831;SDS011;8016;49.928;9.372;2023-04-29T05:41:50;12.93;;;11.67;;
15831;SDS011;8016;49.928;9.372;2023-04-29T05:44:16;13.00;;;11.70;;
15831;SDS011;8016;49.928;9.372;2023-04-29T05:46:42;14.27;;;12.90;;
15831;SDS011;8016;49.928;9.372;2023-04-29T05:49:08;15.97;;;13.20;;
15831;SDS011;8016;49.928;9.372;2023-04-29T05:51:34;14.53;;;13.23;;
15831;SDS011;8016;49.928;9.372;2023-04-29T05:54:00;15.03;;;13.53;;
15831;SDS011;8016;49.928;9.372;2023-04-29T05:56:27;15.20;;;13.73;;
15831;SDS011;8016;49.928;9.372;2023-04-29T05:58:53;15.23;;;13.80;;
15831;SDS011;8016;49.928;9.372;2023-04-29T06:01:18;14.37;;;13.07;;
15831;SDS011;8016;49.928;9.372;2023-04-29T06:03:45;16.13;;;12.90;;
15831;SDS011;8016;49.928;9.372;2023-04-29T06:06:11;14.07;;;12.77;;
15831;SDS011;8016;49.928;9.372;2023-04-29T06:08:37;15.33;;;13.73;;
15831;SDS011;8016;49.928;9.372;2023-04-29T06:11:03;14.33;;;13.03;;
15831;SDS011;8016;49.928;9.372;2023-04-29T06:13:31;15.57;;;13.40;;
15831;SDS011;8016;49.928;9.372;2023-04-29T06:15:57;16.07;;;14.33;;
15831;SDS011;8016;49.928;9.372;2023-04-29T06:18:23;15.67;;;14.17;;
15831;SDS011;8016;49.928;9.372;2023-04-29T06:20:49;16.00;;;13.20;;
15831;SDS011;8016;49.928;9.372;2023-04-29T06:23:15;15.53;;;13.10;;
15831;SDS011;8016;49.928;9.372;2023-04-29T06:25:41;14.43;;;13.03;;
15831;SDS011;8016;49.928;9.372;2023-04-29T06:28:07;15.13;;;13.67;;
15831;SDS011;8016;49.928;9.372;2023-04-29T06:30:33;14.77;;;13.33;;
15831;SDS011;8016;49.928;9.372;2023-04-29T06:32:59;15.00;;;13.60;;
15831;SDS011;8016;49.928;9.372;2023-04-29T06:35:25;14.40;;;12.17;;
15831;SDS011;8016;49.928;9.372;2023-04-29T06:37:51;12.80;;;11.57;;
15831;SDS011;8016;49.928;9.372;2023-04-29T06:40:17;13.77;;;11.27;;
15831;SDS011;8016;49.928;9.372;2023-04-29T06:42:43;14.33;;;12.93;;
15831;SDS011;8016;49.928;9.372;2023-04-29T06:45:09;14.30;;;12.83;;
15831;SDS011;8016;49.928;9.372;2023-04-29T06:47:35;12.07;;;10.90;;
15831;SDS011;8016;49.928;9.372;2023-04-29T06:50:01;15.40;;;10.90;;
15831;SDS011;8016;49.928;9.372;2023-04-29T06:52:27;10.23;;;9.23;;
15831;SDS011;8016;49.928;9.372;2023-04-29T06:54:53;10.20;;;9.20;;
15831;SDS011;8016;49.928;9.372;2023-04-29T06:57:19;9.27;;;8.37;;
15831;SDS011;8016;49.928;9.372;2023-04-29T06:59:45;10.37;;;9.10;;
15831;SDS011;8016;49.928;9.372;2023-04-29T07:02:12;9.00;;;8.10;;
15831;SDS011;8016;49.928;9.372;2023-04-29T07:04:38;8.80;;;8.00;;
15831;SDS011;8016;49.928;9.372;2023-04-29T07:07:05;8.77;;;7.97;;
15831;SDS011;8016;49.928;9.372;2023-04-29T07:09:31;20.10;;;9.97;;
15831;SDS011;8016;49.928;9.372;2023-04-29T07:11:57;8.53;;;7.60;;
15831;SDS011;8016;49.928;9.372;2023-04-29T07:14:23;7.30;;;6.60;;
15831;SDS011;8016;49.928;9.372;2023-04-29T07:16:52;7.67;;;6.97;;
15831;SDS011;8016;49.928;9.372;2023-04-29T07:19:19;7.10;;;6.40;;
15831;SDS011;8016;49.928;9.372;2023-04-29T07:21:45;7.53;;;6.57;;
15831;SDS011;8016;49.928;9.372;2023-04-29T07:24:11;6.90;;;6.30;;
15831;SDS011;8016;49.928;9.372;2023-04-29T07:26:37;9.10;;;6.80;;
15831;SDS011;8016;49.928;9.372;2023-04-29T07:29:03;16.37;;;7.40;;
15831;SDS011;8016;49.928;9.372;2023-04-29T07:31:29;8.03;;;7.23;;
15831;SDS011;8016;49.928;9.372;2023-04-29T07:33:55;9.60;;;7.93;;
15831;SDS011;8016;49.928;9.372;2023-04-29T07:36:21;17.40;;;8.17;;
15831;SDS011;8016;49.928;9.372;2023-04-29T07:38:47;11.70;;;8.03;;
15831;SDS011;8016;49.928;9.372;2023-04-29T07:41:13;7.13;;;6.43;;
15831;SDS011;8016;49.928;9.372;2023-04-29T07:43:39;6.87;;;5.83;;
15831;SDS011;8016;49.928;9.372;2023-04-29T07:46:05;7.13;;;6.30;;
15831;SDS011;8016;49.928;9.372;2023-04-29T07:48:35;6.10;;;5.50;;
15831;SDS011;8016;49.928;9.372;2023-04-29T07:51:02;7.90;;;5.87;;
15831;SDS011;8016;49.928;9.372;2023-04-29T07:53:28;6.53;;;5.40;;
15831;SDS011;8016;49.928;9.372;2023-04-29T07:55:54;6.47;;;5.87;;
15831;SDS011;8016;49.928;9.372;2023-04-29T07:58:20;7.80;;;5.77;;
15831;SDS011;8016;49.928;9.372;2023-04-29T08:00:46;8.60;;;7.83;;
15831;SDS011;8016;49.928;9.372;2023-04-29T08:03:12;9.03;;;5.83;;
15831;SDS011;8016;49.928;9.372;2023-04-29T08:05:38;6.13;;;5.30;;
15831;SDS011;8016;49.928;9.372;2023-04-29T08:08:04;7.33;;;5.80;;
15831;SDS011;8016;49.928;9.372;2023-04-29T08:10:31;5.97;;;5.47;;
15831;SDS011;8016;49.928;9.372;2023-04-29T08:12:57;6.27;;;5.53;;
15831;SDS011;8016;49.928;9.372;2023-04-29T08:15:23;7.27;;;6.57;;
15831;SDS011;8016;49.928;9.372;2023-04-29T08:17:49;6.20;;;5.60;;
15831;SDS011;8016;49.928;9.372;2023-04-29T08:20:15;6.27;;;5.43;;
15831;SDS011;8016;49.928;9.372;2023-04-29T08:22:41;6.57;;;5.20;;
15831;SDS011;8016;49.928;9.372;2023-04-29T08:25:07;6.40;;;5.80;;
15831;SDS011;8016;49.928;9.372;2023-04-29T08:27:33;9.37;;;5.50;;
15831;SDS011;8016;49.928;9.372;2023-04-29T08:30:03;7.40;;;6.10;;
15831;SDS011;8016;49.928;9.372;2023-04-29T08:32:29;9.23;;;6.43;;
15831;SDS011;8016;49.928;9.372;2023-04-29T08:34:55;6.10;;;5.20;;
15831;SDS011;8016;49.928;9.372;2023-04-29T08:37:21;8.87;;;4.97;;
15831;SDS011;8016;49.928;9.372;2023-04-29T08:39:47;6.13;;;5.50;;
15831;SDS011;8016;49.928;9.372;2023-04-29T08:42:13;5.00;;;3.97;;
15831;SDS011;8016;49.928;9.372;2023-04-29T08:44:39;10.17;;;5.33;;
15831;SDS011;8016;49.928;9.372;2023-04-29T08:47:06;6.53;;;5.93;;
15831;SDS011;8016;49.928;9.372;2023-04-29T08:49:32;8.13;;;5.20;;
15831;SDS011;8016;49.928;9.372;2023-04-29T08:51:58;5.60;;;5.10;;
15831;SDS011;8016;49.928;9.372;2023-04-29T08:54:24;5.53;;;5.00;;
15831;SDS011;8016;49.928;9.372;2023-04-29T08:56:52;5.47;;;4.97;;
15831;SDS011;8016;49.928;9.372;2023-04-29T08:59:20;5.80;;;5.30;;
15831;SDS011;8016;49.928;9.372;2023-04-29T09:01:47;6.30;;;5.80;;
15831;SDS011;8016;49.928;9.372;2023-04-29T09:04:20;5.40;;;4.60;;
15831;SDS011;8016;49.928;9.372;2023-04-29T09:06:51;5.50;;;4.60;;
15831;SDS011;8016;49.928;9.372;2023-04-29T09:09:17;7.70;;;4.60;;
15831;SDS011;8016;49.928;9.372;2023-04-29T09:11:43;5.23;;;4.73;;
15831;SDS011;8016;49.928;9.372;2023-04-29T09:14:09;4.67;;;4.10;;
15831;SDS011;8016;49.928;9.372;2023-04-29T09:16:36;5.43;;;4.47;;
15831;SDS011;8016;49.928;9.372;2023-04-29T09:19:02;5.03;;;4.53;;
15831;SDS011;8016;49.928;9.372;2023-04-29T09:21:28;6.10;;;4.50;;
15831;SDS011;8016;49.928;9.372;2023-04-29T09:23:58;6.43;;;5.23;;
15831;SDS011;8016;49.928;9.372;2023-04-29T09:26:25;6.50;;;5.87;;
15831;SDS011;8016;49.928;9.372;2023-04-29T09:29:07;5.47;;;3.97;;
15831;SDS011;8016;49.928;9.372;2023-04-29T09:31:36;4.50;;;4.07;;
15831;SDS011;8016;49.928;9.372;2023-04-29T09:34:03;4.50;;;4.10;;
15831;SDS011;8016;49.928;9.372;2023-04-29T09:36:39;5.60;;;5.00;;
15831;SDS011;8016;49.928;9.372;2023-04-29T09:39:09;5.33;;;4.43;;
15831;SDS011;8016;49.928;9.372;2023-04-29T09:41:57;5.60;;;4.60;;
15831;SDS011;8016;49.928;9.372;2023-04-29T09:44:33;4.40;;;4.07;;
15831;SDS011;8016;49.928;9.372;2023-04-29T09:47:03;7.20;;;4.30;;
15831;SDS011;8016;49.928;9.372;2023-04-29T09:49:36;5.57;;;4.80;;
15831;SDS011;8016;49.928;9.372;2023-04-29T09:52:05;4.87;;;4.37;;
15831;SDS011;8016;49.928;9.372;2023-04-29T09:54:32;11.30;;;5.00;;
15831;SDS011;8016;49.928;9.372;2023-04-29T09:57:00;5.87;;;4.40;;
15831;SDS011;8016;49.928;9.372;2023-04-29T09:59:26;5.73;;;4.97;;
15831;SDS011;8016;49.928;9.372;2023-04-29T10:01:53;6.57;;;5.83;;
15831;SDS011;8016;49.928;9.372;2023-04-29T10:04:20;4.67;;;4.17;;
15831;SDS011;8016;49.928;9.372;2023-04-29T10:06:50;5.63;;;5.03;;
15831;SDS011;8016;49.928;9.372;2023-04-29T10:09:17;4.93;;;4.03;;
15831;SDS011;8016;49.928;9.372;2023-04-29T10:11:44;4.90;;;4.40;;
15831;SDS011;8016;49.928;9.372;2023-04-29T10:14:14;4.40;;;4.00;;
15831;SDS011;8016;49.928;9.372;2023-04-29T10:19:11;5.37;;;4.60;;
15831;SDS011;8016;49.928;9.372;2023-04-29T10:21:37;7.13;;;4.80;;
15831;SDS011;8016;49.928;9.372;2023-04-29T10:24:03;11.67;;;7.33;;
15831;SDS011;8016;49.928;9.372;2023-04-29T10:26:31;6.50;;;5.30;;
15831;SDS011;8016;49.928;9.372;2023-04-29T10:29:01;27.83;;;24.23;;
15831;SDS011;8016;49.928;9.372;2023-04-29T10:31:28;4.57;;;4.17;;
15831;SDS011;8016;49.928;9.372;2023-04-29T10:33:55;7.73;;;5.97;;
15831;SDS011;8016;49.928;9.372;2023-04-29T10:36:23;7.60;;;6.40;;
15831;SDS011;8016;49.928;9.372;2023-04-29T10:38:52;6.27;;;4.87;;
15831;SDS011;8016;49.928;9.372;2023-04-29T10:41:20;7.07;;;5.40;;
15831;SDS011;8016;49.928;9.372;2023-04-29T10:43:49;4.63;;;4.03;;
15831;SDS011;8016;49.928;9.372;2023-04-29T10:48:42;4.97;;;4.47;;
15831;SDS011;8016;49.928;9.372;2023-04-29T10:51:08;4.37;;;3.97;;
15831;SDS011;8016;49.928;9.372;2023-04-29T10:53:34;13.87;;;4.53;;
15831;SDS011;8016;49.928;9.372;2023-04-29T10:56:08;4.47;;;3.60;;
15831;SDS011;8016;49.928;9.372;2023-04-29T10:58:41;4.57;;;3.80;;
15831;SDS011;8016;49.928;9.372;2023-04-29T11:01:12;9.23;;;8.10;;
15831;SDS011;8016;49.928;9.372;2023-04-29T11:03:56;5.80;;;4.40;;
15831;SDS011;8016;49.928;9.372;2023-04-29T11:09:02;8.17;;;7.30;;
15831;SDS011;8016;49.928;9.372;2023-04-29T11:11:41;5.47;;;4.97;;
15831;SDS011;8016;49.928;9.372;2023-04-29T11:14:09;4.30;;;3.70;;
15831;SDS011;8016;49.928;9.372;2023-04-29T11:16:36;4.27;;;3.80;;
15831;SDS011;8016;49.928;9.372;2023-04-29T11:19:06;4.57;;;3.97;;
15831;SDS011;8016;49.928;9.372;2023-04-29T11:21:33;5.67;;;3.20;;
15831;SDS011;8016;49.928;9.372;2023-04-29T11:23:59;3.67;;;3.38;;
15831;SDS011;8016;49.928;9.372;2023-04-29T11:26:26;4.10;;;3.40;;
15831;SDS011;8016;49.928;9.372;2023-04-29T11:28:52;4.00;;;3.40;;
15831;SDS011;8016;49.928;9.372;2023-04-29T11:31:18;4.80;;;3.80;;
15831;SDS011;8016;49.928;9.372;2023-04-29T11:33:45;7.57;;;3.47;;
15831;SDS011;8016;49.928;9.372;2023-04-29T11:36:11;5.07;;;3.63;;
15831;SDS011;8016;49.928;9.372;2023-04-29T11:38:38;7.27;;;4.60;;
15831;SDS011;8016;49.928;9.372;2023-04-29T11:41:09;6.77;;;6.10;;
15831;SDS011;8016;49.928;9.372;2023-04-29T11:43:35;8.23;;;6.90;;
15831;SDS011;8016;49.928;9.372;2023-04-29T11:46:14;5.27;;;4.70;;
15831;SDS011;8016;49.928;9.372;2023-04-29T11:48:44;6.27;;;4.90;;
15831;SDS011;8016;49.928;9.372;2023-04-29T11:51:11;4.23;;;3.20;;
15831;SDS011;8016;49.928;9.372;2023-04-29T11:53:38;2.20;;;2.00;;
15831;SDS011;8016;49.928;9.372;2023-04-29T11:56:04;2.20;;;2.00;;
15831;SDS011;8016;49.928;9.372;2023-04-29T11:58:30;2.40;;;2.20;;
15831;SDS011;8016;49.928;9.372;2023-04-29T12:00:59;2.17;;;1.93;;
15831;SDS011;8016;49.928;9.372;2023-04-29T12:03:25;3.23;;;1.83;;
15831;SDS011;8016;49.928;9.372;2023-04-29T12:05:52;9.37;;;4.17;;
15831;SDS011;8016;49.928;9.372;2023-04-29T12:08:25;4.57;;;3.27;;
15831;SDS011;8016;49.928;9.372;2023-04-29T12:10:53;4.87;;;3.83;;
15831;SDS011;8016;49.928;9.372;2023-04-29T12:13:19;3.10;;;2.70;;
15831;SDS011;8016;49.928;9.372;2023-04-29T12:15:48;3.97;;;3.67;;
15831;SDS011;8016;49.928;9.372;2023-04-29T12:18:16;9.30;;;4.37;;
15831;SDS011;8016;49.928;9.372;2023-04-29T12:20:42;4.30;;;3.03;;
15831;SDS011;8016;49.928;9.372;2023-04-29T12:23:16;5.80;;;4.90;;
15831;SDS011;8016;49.928;9.372;2023-04-29T12:25:46;5.90;;;5.40;;
15831;SDS011;8016;49.928;9.372;2023-04-29T12:28:14;14.47;;;13.03;;
15831;SDS011;8016;49.928;9.372;2023-04-29T12:30:40;2.77;;;2.57;;
15831;SDS011;8016;49.928;9.372;2023-04-29T12:33:08;2.30;;;2.10;;
15831;SDS011;8016;49.928;9.372;2023-04-29T12:35:34;2.30;;;2.10;;
15831;SDS011;8016;49.928;9.372;2023-04-29T12:38:01;2.83;;;2.50;;
15831;SDS011;8016;49.928;9.372;2023-04-29T12:40:27;2.90;;;2.60;;
15831;SDS011;8016;49.928;9.372;2023-04-29T12:42:53;2.60;;;2.40;;
15831;SDS011;8016;49.928;9.372;2023-04-29T12:45:26;3.03;;;2.83;;
15831;SDS011;8016;49.928;9.372;2023-04-29T12:47:52;2.23;;;2.03;;
15831;SDS011;8016;49.928;9.372;2023-04-29T12:50:20;2.97;;;2.67;;
15831;SDS011;8016;49.928;9.372;2023-04-29T12:52:52;4.70;;;4.20;;
15831;SDS011;8016;49.928;9.372;2023-04-29T12:55:18;7.17;;;6.47;;
15831;SDS011;8016;49.928;9.372;2023-04-29T12:57:44;15.83;;;13.60;;
15831;SDS011;8016;49.928;9.372;2023-04-29T13:00:10;8.50;;;6.87;;
15831;SDS011;8016;49.928;9.372;2023-04-29T13:02:36;7.27;;;6.17;;
15831;SDS011;8016;49.928;9.372;2023-04-29T13:05:02;4.20;;;3.67;;
15831;SDS011;8016;49.928;9.372;2023-04-29T13:07:28;7.40;;;6.70;;
15831;SDS011;8016;49.928;9.372;2023-04-29T13:09:54;4.27;;;3.87;;
15831;SDS011;8016;49.928;9.372;2023-04-29T13:12:20;3.43;;;3.13;;
15831;SDS011;8016;49.928;9.372;2023-04-29T13:14:46;5.93;;;5.43;;
15831;SDS011;8016;49.928;9.372;2023-04-29T13:17:12;10.27;;;9.10;;
15831;SDS011;8016;49.928;9.372;2023-04-29T13:19:38;4.70;;;4.20;;
15831;SDS011;8016;49.928;9.372;2023-04-29T13:22:04;5.03;;;4.40;;
15831;SDS011;8016;49.928;9.372;2023-04-29T13:24:30;5.00;;;3.30;;
15831;SDS011;8016;49.928;9.372;2023-04-29T13:26:59;3.10;;;2.80;;
15831;SDS011;8016;49.928;9.372;2023-04-29T13:29:26;4.53;;;3.07;;
15831;SDS011;8016;49.928;9.372;2023-04-29T13:31:52;3.63;;;3.33;;
15831;SDS011;8016;49.928;9.372;2023-04-29T13:34:18;5.93;;;4.93;;
15831;SDS011;8016;49.928;9.372;2023-04-29T13:36:44;3.63;;;3.33;;
15831;SDS011;8016;49.928;9.372;2023-04-29T13:39:11;4.10;;;3.50;;
15831;SDS011;8016;49.928;9.372;2023-04-29T13:41:37;4.20;;;3.90;;
15831;SDS011;8016;49.928;9.372;2023-04-29T13:44:03;4.50;;;4.10;;
15831;SDS011;8016;49.928;9.372;2023-04-29T13:46:29;3.90;;;3.50;;
15831;SDS011;8016;49.928;9.372;2023-04-29T13:48:56;3.90;;;3.50;;
15831;SDS011;8016;49.928;9.372;2023-04-29T13:51:22;4.20;;;3.27;;
15831;SDS011;8016;49.928;9.372;2023-04-29T13:53:48;6.53;;;5.93;;
15831;SDS011;8016;49.928;9.372;2023-04-29T13:56:14;5.67;;;4.23;;
15831;SDS011;8016;49.928;9.372;2023-04-29T13:58:40;7.63;;;6.93;;
15831;SDS011;8016;49.928;9.372;2023-04-29T14:01:06;5.70;;;3.97;;
15831;SDS011;8016;49.928;9.372;2023-04-29T14:03:32;4.30;;;3.70;;
15831;SDS011;8016;49.928;9.372;2023-04-29T14:05:59;4.37;;;3.97;;
15831;SDS011;8016;49.928;9.372;2023-04-29T14:08:25;3.70;;;3.40;;
15831;SDS011;8016;49.928;9.372;2023-04-29T14:10:51;3.10;;;2.80;;
15831;SDS011;8016;49.928;9.372;2023-04-29T14:13:17;6.07;;;4.83;;
15831;SDS011;8016;49.928;9.372;2023-04-29T14:15:43;4.30;;;3.90;;
15831;SDS011;8016;49.928;9.372;2023-04-29T14:18:09;3.57;;;2.90;;
15831;SDS011;8016;49.928;9.372;2023-04-29T14:20:36;9.17;;;4.97;;
15831;SDS011;8016;49.928;9.372;2023-04-29T14:23:02;5.27;;;3.03;;
15831;SDS011;8016;49.928;9.372;2023-04-29T14:25:28;4.77;;;3.50;;
15831;SDS011;8016;49.928;9.372;2023-04-29T14:27:54;3.73;;;2.87;;
15831;SDS011;8016;49.928;9.372;2023-04-29T14:30:20;2.87;;;2.67;;
15831;SDS011;8016;49.928;9.372;2023-04-29T14:32:46;6.40;;;3.50;;
15831;SDS011;8016;49.928;9.372;2023-04-29T14:35:12;7.53;;;5.83;;
15831;SDS011;8016;49.928;9.372;2023-04-29T14:37:38;15.27;;;10.90;;
15831;SDS011;8016;49.928;9.372;2023-04-29T14:40:05;8.87;;;6.07;;
15831;SDS011;8016;49.928;9.372;2023-04-29T14:42:31;4.20;;;3.80;;
15831;SDS011;8016;49.928;9.372;2023-04-29T14:44:57;7.37;;;6.37;;
15831;SDS011;8016;49.928;9.372;2023-04-29T14:47:23;5.53;;;3.30;;
15831;SDS011;8016;49.928;9.372;2023-04-29T14:49:49;3.47;;;2.83;;
15831;SDS011;8016;49.928;9.372;2023-04-29T14:52:15;6.20;;;4.40;;
15831;SDS011;8016;49.928;9.372;2023-04-29T14:54:41;4.37;;;3.40;;
15831;SDS011;8016;49.928;9.372;2023-04-29T14:57:07;5.40;;;3.10;;
15831;SDS011;8016;49.928;9.372;2023-04-29T14:59:33;2.73;;;2.40;;
15831;SDS011;8016;49.928;9.372;2023-04-29T15:01:59;2.00;;;1.90;;
15831;SDS011;8016;49.928;9.372;2023-04-29T15:04:25;3.40;;;2.27;;
15831;SDS011;8016;49.928;9.372;2023-04-29T15:06:52;4.17;;;3.27;;
15831;SDS011;8016;49.928;9.372;2023-04-29T15:09:18;2.87;;;2.40;;
15831;SDS011;8016;49.928;9.372;2023-04-29T15:11:44;3.00;;;2.07;;
15831;SDS011;8016;49.928;9.372;2023-04-29T15:14:10;4.83;;;4.00;;